createdAt,value
2019-05-06T00:00:25.456Z,11.33
2019-05-06T00:02:54.604Z,11.88
2019-05-06T00:05:25.399Z,11.53
2019-05-06T00:07:54.365Z,11.35
2019-05-06T00:10:29.501Z,8.70
2019-05-06T00:12:58.336Z,10.03
2019-05-06T00:15:27.276Z,8.55
2019-05-06T00:17:56.049Z,8.85
2019-05-06T00:20:25.052Z,9.60
2019-05-06T00:22:55.475Z,9.75
2019-05-06T00:25:38.131Z,7.37
2019-05-06T00:28:14.695Z,10.35
2019-05-06T00:30:44.968Z,14.65
2019-05-06T00:33:13.644Z,7.90
2019-05-06T00:35:42.244Z,11.05
2019-05-06T00:38:10.923Z,9.38
2019-05-06T00:40:43.700Z,8.85
2019-05-06T00:43:14.054Z,11.38
2019-05-06T00:45:44.302Z,8.30
2019-05-06T00:48:13.945Z,9.33
2019-05-06T00:50:44.123Z,11.53
2019-05-06T00:53:14.366Z,9.55
2019-05-06T00:55:44.589Z,11.65
2019-05-06T00:58:14.239Z,10.18
2019-05-06T01:00:44.303Z,8.93
2019-05-06T01:03:14.086Z,10.55
2019-05-06T01:05:44.408Z,11.25
2019-05-06T01:08:14.170Z,10.25
2019-05-06T01:10:44.845Z,12.73
2019-05-06T01:13:14.946Z,10.78
2019-05-06T01:15:44.101Z,10.88
2019-05-06T01:18:13.778Z,11.83
2019-05-06T01:20:44.548Z,12.63
2019-05-06T01:23:14.381Z,15.45
2019-05-06T01:25:43.835Z,11.85
2019-05-06T01:28:13.801Z,12.53
2019-05-06T01:30:44.344Z,15.43
2019-05-06T01:33:14.619Z,12.40
2019-05-06T01:35:44.349Z,11.95
2019-05-06T01:38:30.078Z,15.75
2019-05-06T01:41:00.403Z,10.32
2019-05-06T01:43:36.635Z,17.60
2019-05-06T01:46:05.231Z,13.22
2019-05-06T01:48:48.633Z,13.62
2019-05-06T01:51:18.815Z,14.73
2019-05-06T01:53:47.791Z,13.50
2019-05-06T01:56:16.496Z,13.10
2019-05-06T01:58:45.964Z,13.15
2019-05-06T02:01:14.938Z,10.20
2019-05-06T02:03:44.253Z,11.25
2019-05-06T02:06:14.169Z,9.23
2019-05-06T02:08:44.718Z,14.85
2019-05-06T02:11:14.849Z,16.17
2019-05-06T02:13:44.248Z,11.03
2019-05-06T02:16:14.646Z,12.13
2019-05-06T02:18:44.857Z,12.15
2019-05-06T02:21:27.668Z,14.25
2019-05-06T02:24:00.388Z,10.70
2019-05-06T02:26:28.990Z,11.68
2019-05-06T02:28:59.209Z,11.65
2019-05-06T02:31:47.762Z,10.43
2019-05-06T02:34:26.438Z,10.80
2019-05-06T02:36:59.547Z,11.80
2019-05-06T02:39:28.168Z,12.20
2019-05-06T02:41:56.794Z,10.18
2019-05-06T02:44:25.344Z,12.07
2019-05-06T02:46:55.527Z,11.15
2019-05-06T02:49:25.783Z,12.47
2019-05-06T02:51:54.331Z,12.33
2019-05-06T02:54:23.637Z,12.15
2019-05-06T02:56:53.138Z,10.48
2019-05-06T02:59:24.034Z,10.25
2019-05-06T03:01:53.805Z,10.13
2019-05-06T03:04:23.664Z,11.88
2019-05-06T03:06:53.201Z,13.65
2019-05-06T03:09:23.351Z,12.58
2019-05-06T03:11:53.999Z,12.50
2019-05-06T03:14:23.370Z,12.23
2019-05-06T03:16:53.675Z,12.88
2019-05-06T03:19:24.078Z,11.18
2019-05-06T03:22:13.341Z,12.10
2019-05-06T03:24:43.767Z,15.05
2019-05-06T03:27:14.351Z,14.73
2019-05-06T03:29:44.429Z,12.07
2019-05-06T03:32:16.488Z,13.93
2019-05-06T03:35:00.372Z,13.00
2019-05-06T03:37:16.919Z,13.90
2019-05-06T03:39:43.709Z,13.88
2019-05-06T03:42:13.714Z,14.83
2019-05-06T03:44:44.165Z,14.38
2019-05-06T03:47:14.348Z,11.55
2019-05-06T03:49:54.412Z,13.60
2019-05-06T03:52:23.227Z,15.83
2019-05-06T03:54:53.580Z,12.23
2019-05-06T03:57:24.092Z,12.25
2019-05-06T03:59:53.339Z,11.93
2019-05-06T04:02:24.137Z,11.78
2019-05-06T04:04:55.934Z,12.93
2019-05-06T04:07:23.437Z,11.80
2019-05-06T04:09:53.556Z,10.25
2019-05-06T04:12:24.696Z,12.80
2019-05-06T04:14:54.226Z,14.35
2019-05-06T04:17:28.404Z,11.05
2019-05-06T04:20:04.058Z,13.95
2019-05-06T04:22:52.901Z,12.18
2019-05-06T04:25:43.730Z,12.33
2019-05-06T04:28:14.351Z,13.90
2019-05-06T04:30:43.235Z,15.28
2019-05-06T04:33:16.493Z,13.22
2019-05-06T04:35:43.019Z,11.63
2019-05-06T04:38:13.858Z,14.20
2019-05-06T04:40:44.021Z,16.27
2019-05-06T04:43:13.566Z,12.85
2019-05-06T04:45:43.218Z,13.15
2019-05-06T04:48:14.231Z,11.73
2019-05-06T04:50:44.370Z,18.12
2019-05-06T04:53:13.877Z,20.15
2019-05-06T04:55:43.579Z,15.85
2019-05-06T04:58:13.388Z,15.00
2019-05-06T05:00:44.604Z,13.03
2019-05-06T05:03:14.054Z,13.43
2019-05-06T05:05:44.887Z,15.85
2019-05-06T05:08:13.763Z,13.43
2019-05-06T05:10:44.803Z,17.07
2019-05-06T05:13:18.284Z,14.98
2019-05-06T05:16:05.076Z,19.37
2019-05-06T05:18:35.325Z,15.63
2019-05-06T05:21:03.991Z,16.17
2019-05-06T05:23:32.703Z,17.45
2019-05-06T05:26:02.896Z,18.57
2019-05-06T05:28:32.177Z,13.22
2019-05-06T05:31:02.878Z,14.47
2019-05-06T05:33:32.771Z,15.83
2019-05-06T05:36:02.086Z,15.25
2019-05-06T05:38:32.026Z,16.40
2019-05-06T05:41:02.964Z,14.87
2019-05-06T05:43:39.623Z,14.60
2019-05-06T05:46:08.536Z,15.50
2019-05-06T05:48:53.862Z,15.88
2019-05-06T05:51:22.495Z,13.80
2019-05-06T05:53:52.277Z,17.92
2019-05-06T05:56:23.822Z,14.58
2019-05-06T05:58:53.558Z,20.90
2019-05-06T06:01:24.439Z,12.43
2019-05-06T06:03:53.064Z,12.68
2019-05-06T06:06:22.180Z,12.13
2019-05-06T06:08:52.324Z,14.58
2019-05-06T06:11:26.451Z,9.13
2019-05-06T06:13:56.786Z,10.68
2019-05-06T06:16:33.048Z,10.78
2019-05-06T06:19:19.286Z,8.63
2019-05-06T06:21:49.605Z,14.03
2019-05-06T06:24:25.824Z,12.90
2019-05-06T06:26:54.432Z,12.00
2019-05-06T06:29:23.127Z,11.60
2019-05-06T06:31:53.439Z,9.40
2019-05-06T06:34:29.485Z,10.03
2019-05-06T06:37:17.704Z,12.55
2019-05-06T06:39:48.379Z,8.55
2019-05-06T06:42:16.987Z,10.05
2019-05-06T06:44:45.774Z,10.68
2019-05-06T06:47:14.465Z,8.63
2019-05-06T06:49:43.142Z,10.93
2019-05-06T06:52:14.734Z,10.30
2019-05-06T06:54:43.853Z,13.18
2019-05-06T06:57:22.860Z,10.75
2019-05-06T06:59:56.442Z,8.65
2019-05-06T07:02:27.009Z,10.70
2019-05-06T07:05:06.260Z,11.80
2019-05-06T07:07:44.003Z,10.90
2019-05-06T07:10:08.798Z,14.07
2019-05-06T07:12:37.327Z,9.25
2019-05-06T07:15:07.023Z,10.58
2019-05-06T07:17:35.577Z,9.68
2019-05-06T07:20:07.185Z,9.48
2019-05-06T07:22:38.528Z,12.65
2019-05-06T07:25:10.146Z,10.58
2019-05-06T07:27:38.821Z,7.58
2019-05-06T07:30:08.287Z,10.98
2019-05-06T07:32:36.829Z,10.25
2019-05-06T07:35:06.363Z,6.83
2019-05-06T07:37:35.127Z,8.25
2019-05-06T07:40:05.047Z,8.30
2019-05-06T07:42:37.276Z,9.03
2019-05-06T07:45:09.405Z,6.95
2019-05-06T07:47:48.934Z,7.55
2019-05-06T07:50:17.602Z,9.90
2019-05-06T07:53:04.335Z,7.58
2019-05-06T07:55:32.882Z,7.20
2019-05-06T07:58:02.893Z,8.38
2019-05-06T08:00:32.749Z,6.92
2019-05-06T08:03:02.502Z,7.67
2019-05-06T08:05:32.436Z,5.15
2019-05-06T08:08:03.466Z,5.45
2019-05-06T08:10:33.250Z,6.35
2019-05-06T08:13:02.785Z,5.90
2019-05-06T08:15:32.499Z,6.33
2019-05-06T08:18:03.474Z,5.08
2019-05-06T08:20:38.064Z,6.47
2019-05-06T08:23:09.686Z,6.20
2019-05-06T08:25:42.332Z,10.13
2019-05-06T08:28:10.216Z,6.15
2019-05-06T08:30:38.944Z,6.75
2019-05-06T08:33:07.716Z,12.20
2019-05-06T08:35:36.268Z,4.08
2019-05-06T08:38:04.885Z,5.35
2019-05-06T08:40:33.424Z,5.22
2019-05-06T08:43:02.327Z,7.22
2019-05-06T08:45:32.499Z,6.55
2019-05-06T08:48:02.967Z,5.50
2019-05-06T08:50:39.090Z,3.92
2019-05-06T08:53:09.381Z,5.47
2019-05-06T08:55:47.633Z,6.37
2019-05-06T08:58:16.304Z,4.95
2019-05-06T09:00:46.576Z,5.55
2019-05-06T09:03:15.176Z,8.33
2019-05-06T09:05:45.434Z,5.70
2019-05-06T09:08:14.002Z,5.50
2019-05-06T09:10:42.914Z,6.65
2019-05-06T09:13:12.318Z,5.30
2019-05-06T09:15:42.771Z,6.22
2019-05-06T09:18:12.418Z,4.42
2019-05-06T09:20:43.124Z,4.10
2019-05-06T09:23:12.439Z,6.87
2019-05-06T09:25:42.449Z,3.10
2019-05-06T09:28:13.243Z,3.85
2019-05-06T09:30:43.472Z,4.53
2019-05-06T09:33:12.955Z,2.50
2019-05-06T09:35:42.246Z,3.35
2019-05-06T09:38:12.761Z,2.67
2019-05-06T09:40:43.252Z,5.83
2019-05-06T09:43:13.166Z,3.65
2019-05-06T09:45:42.536Z,3.98
2019-05-06T09:48:22.420Z,3.30
2019-05-06T09:50:53.538Z,4.28
2019-05-06T09:53:23.219Z,3.00
2019-05-06T09:55:53.647Z,2.92
2019-05-06T09:58:22.877Z,3.33
2019-05-06T10:00:53.237Z,10.72
2019-05-06T10:03:22.615Z,3.70
2019-05-06T10:05:53.080Z,3.50
2019-05-06T10:08:22.753Z,3.52
2019-05-06T10:10:56.852Z,5.05
2019-05-06T10:13:21.866Z,2.65
2019-05-06T10:15:52.068Z,4.17
2019-05-06T10:18:22.624Z,2.12
2019-05-06T10:20:51.091Z,2.47
2019-05-06T10:23:19.657Z,2.75
2019-05-06T10:25:48.183Z,3.08
2019-05-06T10:28:23.294Z,4.12
2019-05-06T10:30:51.989Z,1.98
2019-05-06T10:33:24.714Z,4.83
2019-05-06T10:35:53.404Z,2.10
2019-05-06T10:38:50.393Z,2.35
2019-05-06T10:41:27.527Z,1.92
2019-05-06T10:44:04.644Z,2.15
2019-05-06T10:46:33.177Z,3.17
2019-05-06T10:49:02.602Z,2.35
2019-05-06T10:51:42.761Z,6.90
2019-05-06T10:54:12.268Z,5.85
2019-05-06T10:56:50.797Z,2.75
2019-05-06T10:59:14.596Z,2.50
2019-05-06T11:01:47.899Z,5.22
2019-05-06T11:04:16.508Z,7.58
2019-05-06T11:06:45.204Z,2.62
2019-05-06T11:09:13.883Z,2.40
2019-05-06T11:11:42.881Z,4.17
2019-05-06T11:14:12.643Z,3.05
2019-05-06T11:16:41.759Z,8.83
2019-05-06T11:19:10.300Z,3.52
2019-05-06T11:21:38.915Z,6.70
2019-05-06T11:24:07.606Z,2.80
2019-05-06T11:26:36.226Z,2.42
2019-05-06T11:29:06.621Z,17.02
2019-05-06T11:31:36.802Z,5.77
2019-05-06T11:34:09.925Z,2.60
2019-05-06T11:36:40.150Z,2.07
2019-05-06T11:39:09.114Z,2.83
2019-05-06T11:41:37.678Z,3.45
2019-05-06T11:44:09.006Z,4.85
2019-05-06T11:46:36.485Z,8.00
2019-05-06T11:49:05.185Z,2.67
2019-05-06T11:51:34.009Z,2.20
2019-05-06T11:54:07.578Z,2.07
2019-05-06T11:56:47.534Z,2.53
2019-05-06T11:59:03.364Z,2.33
2019-05-06T12:01:39.944Z,5.90
2019-05-06T12:04:08.482Z,3.33
2019-05-06T12:06:37.348Z,2.93
2019-05-06T12:09:10.294Z,2.87
2019-05-06T12:11:39.572Z,5.22
2019-05-06T12:14:08.197Z,17.00
2019-05-06T12:16:36.829Z,2.45
2019-05-06T12:19:05.517Z,3.83
2019-05-06T12:21:34.048Z,5.83
2019-05-06T12:24:03.054Z,2.98
2019-05-06T12:26:32.258Z,3.97
2019-05-06T12:29:02.165Z,3.60
2019-05-06T12:31:32.795Z,3.70
2019-05-06T12:34:02.691Z,3.72
2019-05-06T12:36:32.573Z,2.58
2019-05-06T12:39:17.372Z,3.50
2019-05-06T12:42:03.566Z,3.80
2019-05-06T12:44:33.748Z,13.97
2019-05-06T12:47:04.021Z,3.03
2019-05-06T12:49:32.764Z,1.80
2019-05-06T12:52:01.366Z,3.30
2019-05-06T12:54:30.064Z,4.53
2019-05-06T12:56:59.760Z,4.27
2019-05-06T12:59:28.435Z,4.87
2019-05-06T13:01:57.179Z,4.40
2019-05-06T13:04:45.969Z,2.53
2019-05-06T13:06:56.055Z,1.93
2019-05-06T13:09:24.629Z,2.73
2019-05-06T13:11:53.234Z,5.00
2019-05-06T13:14:22.358Z,6.10
2019-05-06T13:16:53.243Z,3.50
2019-05-06T13:19:22.784Z,4.80
2019-05-06T13:21:51.735Z,7.87
2019-05-06T13:24:20.274Z,5.93
2019-05-06T13:26:48.830Z,3.35
2019-05-06T13:29:19.085Z,2.67
2019-05-06T13:31:47.715Z,3.03
2019-05-06T13:34:17.629Z,4.30
2019-05-06T13:36:46.959Z,5.13
2019-05-06T13:39:15.690Z,3.37
2019-05-06T13:41:44.332Z,5.93
2019-05-06T13:44:14.576Z,4.83
2019-05-06T13:46:44.904Z,6.90
2019-05-06T13:49:17.914Z,2.90
2019-05-06T13:51:54.128Z,4.57
2019-05-06T13:54:22.840Z,2.97
2019-05-06T13:56:52.166Z,6.47
2019-05-06T13:59:20.883Z,4.30
2019-05-06T14:01:52.678Z,5.23
2019-05-06T14:04:24.102Z,4.80
2019-05-06T14:06:52.843Z,4.90
2019-05-06T14:09:31.414Z,3.93
2019-05-06T14:11:52.527Z,21.17
2019-05-06T14:14:22.678Z,3.73
2019-05-06T14:16:53.302Z,4.87
2019-05-06T14:19:22.494Z,2.83
2019-05-06T14:21:52.270Z,2.23
2019-05-06T14:24:22.165Z,5.13
2019-05-06T14:26:58.540Z,2.90
2019-05-06T14:29:32.798Z,3.37
2019-05-06T14:32:00.964Z,4.97
2019-05-06T14:34:29.499Z,4.13
2019-05-06T14:36:58.141Z,3.20
2019-05-06T14:39:47.360Z,4.23
2019-05-06T14:41:58.634Z,2.90
2019-05-06T14:44:27.260Z,3.43
2019-05-06T14:47:03.545Z,3.13
2019-05-06T14:49:32.691Z,4.73
2019-05-06T14:52:02.683Z,5.10
2019-05-06T14:54:33.047Z,8.50
2019-05-06T14:57:03.388Z,4.43
2019-05-06T14:59:32.962Z,5.77
2019-05-06T15:02:02.634Z,4.60
2019-05-06T15:04:32.443Z,3.83
2019-05-06T15:07:02.112Z,6.70
2019-05-06T15:09:32.949Z,18.43
2019-05-06T15:12:02.377Z,10.07
2019-05-06T15:14:33.115Z,5.90
2019-05-06T15:17:02.210Z,7.62
2019-05-06T15:19:31.044Z,5.73
2019-05-06T15:21:59.568Z,9.73
2019-05-06T15:24:28.198Z,6.37
2019-05-06T15:26:56.881Z,3.58
2019-05-06T15:29:25.420Z,5.83
2019-05-06T15:32:02.627Z,3.60
2019-05-06T15:34:44.727Z,3.20
2019-05-06T15:37:14.887Z,4.60
2019-05-06T15:39:43.860Z,4.43
2019-05-06T15:42:12.907Z,3.10
2019-05-06T15:44:42.491Z,5.17
2019-05-06T15:47:13.237Z,5.00
2019-05-06T15:49:41.999Z,2.40
2019-05-06T15:52:12.454Z,3.80
2019-05-06T15:54:43.071Z,3.70
2019-05-06T15:57:11.772Z,2.63
2019-05-06T15:59:42.130Z,3.17
2019-05-06T16:02:10.668Z,3.55
2019-05-06T16:04:39.199Z,7.03
2019-05-06T16:07:07.840Z,4.40
2019-05-06T16:09:36.380Z,3.60
2019-05-06T16:12:05.072Z,9.40
2019-05-06T16:14:34.877Z,6.93
2019-05-06T16:17:03.964Z,4.35
2019-05-06T16:19:33.630Z,3.60
2019-05-06T16:22:04.093Z,4.30
2019-05-06T16:24:53.064Z,3.23
2019-05-06T16:27:22.996Z,5.20
2019-05-06T16:29:52.993Z,5.25
2019-05-06T16:32:22.039Z,9.07
2019-05-06T16:34:52.450Z,3.83
2019-05-06T16:37:22.259Z,9.30
2019-05-06T16:39:54.141Z,4.57
2019-05-06T16:42:22.491Z,3.27
2019-05-06T16:44:52.741Z,1.90
2019-05-06T16:47:37.635Z,3.13
2019-05-06T16:50:09.063Z,2.20
2019-05-06T16:52:37.839Z,3.40
2019-05-06T16:55:10.315Z,5.53
2019-05-06T16:57:39.123Z,2.60
2019-05-06T17:00:09.703Z,16.40
2019-05-06T17:02:56.883Z,6.22
2019-05-06T17:05:22.428Z,2.72
2019-05-06T17:07:52.992Z,6.67
2019-05-06T17:10:22.780Z,2.33
2019-05-06T17:12:53.415Z,3.58
2019-05-06T17:15:22.999Z,2.70
2019-05-06T17:17:53.125Z,3.37
2019-05-06T17:20:22.745Z,2.50
2019-05-06T17:22:53.236Z,3.90
2019-05-06T17:25:22.430Z,6.15
2019-05-06T17:27:52.668Z,4.20
2019-05-06T17:30:33.170Z,2.20
2019-05-06T17:33:18.339Z,2.00
2019-05-06T17:35:46.968Z,3.60
2019-05-06T17:38:17.155Z,3.52
2019-05-06T17:40:45.833Z,3.22
2019-05-06T17:43:14.391Z,2.50
2019-05-06T17:45:57.929Z,2.60
2019-05-06T17:48:28.426Z,2.62
2019-05-06T17:51:10.476Z,3.17
2019-05-06T17:53:47.635Z,2.90
2019-05-06T17:56:16.317Z,4.70
2019-05-06T17:58:45.114Z,3.55
2019-05-06T18:01:15.429Z,3.52
2019-05-06T18:03:44.052Z,5.67
2019-05-06T18:06:14.213Z,3.62
2019-05-06T18:08:43.370Z,2.30
2019-05-06T18:11:12.926Z,2.70
2019-05-06T18:13:41.639Z,2.60
2019-05-06T18:16:10.112Z,2.30
2019-05-06T18:18:38.687Z,1.77
2019-05-06T18:21:07.375Z,3.65
2019-05-06T18:23:36.003Z,2.95
2019-05-06T18:26:04.608Z,2.10
2019-05-06T18:28:33.245Z,2.75
2019-05-06T18:31:03.117Z,2.50
2019-05-06T18:33:32.759Z,2.67
2019-05-06T18:36:02.586Z,3.85
2019-05-06T18:38:33.465Z,15.72
2019-05-06T18:41:02.053Z,6.37
2019-05-06T18:43:33.145Z,2.05
2019-05-06T18:46:02.810Z,2.80
2019-05-06T18:48:34.521Z,6.75
2019-05-06T18:51:03.012Z,5.05
2019-05-06T18:53:33.161Z,5.17
2019-05-06T18:56:03.109Z,6.80
2019-05-06T18:58:32.683Z,7.03
2019-05-06T19:01:03.788Z,3.15
2019-05-06T19:03:33.276Z,4.10
2019-05-06T19:06:02.340Z,6.17
2019-05-06T19:08:33.296Z,6.67
2019-05-06T19:11:02.453Z,3.72
2019-05-06T19:13:33.359Z,3.12
2019-05-06T19:16:02.119Z,1.92
2019-05-06T19:18:31.120Z,10.68
2019-05-06T19:20:59.773Z,4.53
2019-05-06T19:23:28.300Z,3.95
2019-05-06T19:25:56.932Z,4.78
2019-05-06T19:28:25.471Z,7.85
2019-05-06T19:30:54.325Z,3.85
2019-05-06T19:33:23.113Z,3.40
2019-05-06T19:35:52.285Z,4.80
2019-05-06T19:38:22.340Z,9.85
2019-05-06T19:40:52.379Z,5.50
2019-05-06T19:43:21.986Z,4.87
2019-05-06T19:45:52.959Z,4.28
2019-05-06T19:48:22.178Z,8.05
2019-05-06T19:50:52.231Z,3.65
2019-05-06T19:53:21.035Z,3.17
2019-05-06T19:55:49.634Z,9.03
2019-05-06T19:58:18.256Z,4.33
2019-05-06T20:00:47.270Z,3.10
2019-05-06T20:03:16.662Z,3.83
2019-05-06T20:05:49.588Z,4.60
2019-05-06T20:08:19.795Z,3.62
2019-05-06T20:11:08.023Z,4.80
2019-05-06T20:13:37.691Z,4.53
2019-05-06T20:16:06.296Z,5.08
2019-05-06T20:18:34.851Z,4.90
2019-05-06T20:21:03.461Z,5.50
2019-05-06T20:23:32.780Z,3.42
2019-05-06T20:26:03.409Z,2.70
2019-05-06T20:28:32.284Z,4.03
2019-05-06T20:31:02.487Z,2.58
2019-05-06T20:33:32.675Z,3.70
2019-05-06T20:36:01.428Z,4.20
2019-05-06T20:38:30.082Z,3.02
2019-05-06T20:40:58.640Z,2.67
2019-05-06T20:43:27.166Z,3.30
2019-05-06T20:45:56.391Z,5.20
2019-05-06T20:48:24.992Z,3.22
2019-05-06T20:50:53.531Z,5.17
2019-05-06T20:53:23.166Z,3.67
2019-05-06T20:55:53.209Z,9.33
2019-05-06T20:58:22.968Z,3.55
2019-05-06T21:00:52.203Z,4.10
2019-05-06T21:03:22.191Z,3.35
2019-05-06T21:05:50.979Z,4.80
2019-05-06T21:08:19.528Z,2.20
2019-05-06T21:10:49.890Z,4.50
2019-05-06T21:13:29.633Z,6.05
2019-05-06T21:15:48.457Z,4.40
2019-05-06T21:18:17.012Z,4.00
2019-05-06T21:20:45.563Z,3.52
2019-05-06T21:23:14.083Z,3.75
2019-05-06T21:25:43.179Z,4.78
2019-05-06T21:28:12.211Z,3.92
2019-05-06T21:30:42.845Z,2.40
2019-05-06T21:33:12.440Z,4.95
2019-05-06T21:35:42.322Z,7.17
2019-05-06T21:38:12.176Z,4.05
2019-05-06T21:40:43.135Z,4.05
2019-05-06T21:43:13.049Z,2.85
2019-05-06T21:45:42.360Z,4.83
2019-05-06T21:48:13.422Z,6.35
2019-05-06T21:50:42.662Z,3.00
2019-05-06T21:53:14.262Z,3.17
2019-05-06T21:55:41.615Z,4.35
2019-05-06T21:58:12.263Z,3.27
2019-05-06T22:00:48.213Z,2.33
2019-05-06T22:03:16.895Z,3.00
2019-05-06T22:05:45.489Z,2.80
2019-05-06T22:08:14.183Z,7.10
2019-05-06T22:10:42.780Z,3.17
2019-05-06T22:13:14.099Z,3.72
2019-05-06T22:15:42.194Z,2.70
2019-05-06T22:18:12.437Z,3.22
2019-05-06T22:20:59.254Z,2.25
2019-05-06T22:23:29.475Z,2.98
2019-05-06T22:26:10.780Z,2.98
2019-05-06T22:28:28.182Z,2.50
2019-05-06T22:30:56.716Z,3.67
2019-05-06T22:33:25.335Z,4.25
2019-05-06T22:35:54.969Z,2.77
2019-05-06T22:38:23.632Z,4.35
2019-05-06T22:40:52.954Z,7.03
2019-05-06T22:43:22.001Z,2.98
2019-05-06T22:45:50.719Z,3.70
2019-05-06T22:48:19.289Z,3.22
2019-05-06T22:50:47.823Z,2.77
2019-05-06T22:53:16.383Z,5.70
2019-05-06T22:55:44.993Z,2.52
2019-05-06T22:58:13.555Z,4.20
2019-05-06T23:00:46.519Z,2.45
2019-05-06T23:03:19.568Z,2.67
2019-05-06T23:05:48.106Z,3.75
2019-05-06T23:08:16.646Z,4.10
2019-05-06T23:10:46.101Z,5.03
2019-05-06T23:13:14.550Z,4.67
2019-05-06T23:15:43.110Z,4.85
2019-05-06T23:18:11.711Z,6.12
2019-05-06T23:20:40.335Z,2.80
2019-05-06T23:23:08.873Z,2.40
2019-05-06T23:25:37.501Z,3.22
2019-05-06T23:28:06.095Z,4.17
2019-05-06T23:30:34.688Z,2.80
2019-05-06T23:33:03.323Z,3.17
2019-05-06T23:35:31.991Z,2.45
2019-05-06T23:38:37.085Z,8.28
2019-05-06T23:41:42.370Z,3.42
2019-05-06T23:44:47.607Z,3.35
2019-05-06T23:47:53.204Z,2.95
2019-05-06T23:50:58.228Z,3.65
2019-05-06T23:54:03.251Z,2.98
2019-05-06T23:56:42.879Z,4.15
2019-05-06T23:59:13.017Z,4.53
